createdAt,value
2023-01-23T00:01:36.479Z,102238.88
2023-01-23T00:04:05.957Z,102245.06
2023-01-23T00:06:35.399Z,102250.28
2023-01-23T00:09:03.519Z,102254.75
2023-01-23T00:11:32.122Z,102259.12
2023-01-23T00:14:01.682Z,102256.47
2023-01-23T00:16:31.869Z,102258.19
2023-01-23T00:19:00.662Z,102266.06
2023-01-23T00:21:30.506Z,102261.69
2023-01-23T00:24:02.489Z,102261.69
2023-01-23T00:26:33.192Z,102255.53
2023-01-23T00:29:01.546Z,102257.28
2023-01-23T00:31:33.840Z,102260.81
2023-01-23T00:34:04.235Z,102261.78
2023-01-23T00:36:34.356Z,102259.34
2023-01-23T00:39:07.325Z,102268.31
2023-01-23T00:41:35.529Z,102264.03
2023-01-23T00:44:05.717Z,102256.19
2023-01-23T00:46:34.918Z,102259.63
2023-01-23T00:49:04.355Z,102262.25
2023-01-23T00:51:32.720Z,102262.34
2023-01-23T00:54:01.203Z,102262.16
2023-01-23T00:56:31.009Z,102258.88
2023-01-23T00:58:59.115Z,102263.16
2023-01-23T01:01:28.987Z,102271.69
2023-01-23T01:03:57.421Z,102272.72
2023-01-23T01:06:25.791Z,102268.25
2023-01-23T01:08:53.872Z,102267.22
2023-01-23T01:11:24.107Z,102265.56
2023-01-23T01:13:54.115Z,102269.09
2023-01-23T01:16:24.348Z,102272.59
2023-01-23T01:18:52.605Z,102265.41
2023-01-23T01:21:20.832Z,102268.03
2023-01-23T01:23:49.098Z,102272.34
2023-01-23T01:26:18.402Z,102280.25
2023-01-23T01:28:46.448Z,102272.34
2023-01-23T01:31:17.822Z,102275.78
2023-01-23T01:33:45.979Z,102280.25
2023-01-23T01:36:16.917Z,102284.56
2023-01-23T01:38:47.989Z,102282.78
2023-01-23T01:41:17.486Z,102287.13
2023-01-23T01:43:46.609Z,102291.50
2023-01-23T01:46:22.186Z,102287.97
2023-01-23T01:49:04.125Z,102296.72
2023-01-23T01:51:34.648Z,102298.44
2023-01-23T01:54:10.540Z,102300.16
2023-01-23T01:56:42.202Z,102305.44
2023-01-23T01:59:12.231Z,102311.63
2023-01-23T02:01:44.233Z,102308.94
2023-01-23T02:04:12.837Z,102313.28
2023-01-23T02:06:41.828Z,102304.47
2023-01-23T02:09:15.973Z,102308.88
2023-01-23T02:11:45.274Z,102311.59
2023-01-23T02:14:14.577Z,102315.13
2023-01-23T02:16:50.447Z,102319.47
2023-01-23T02:19:34.607Z,102312.47
2023-01-23T02:22:11.859Z,102320.34
2023-01-23T02:24:45.073Z,102320.34
2023-01-23T02:27:14.472Z,102329.09
2023-01-23T02:29:44.378Z,102326.41
2023-01-23T02:32:12.850Z,102326.38
2023-01-23T02:34:42.567Z,102325.50
2023-01-23T02:37:11.152Z,102319.28
2023-01-23T02:39:39.646Z,102321.94
2023-01-23T02:42:09.432Z,102326.34
2023-01-23T02:44:39.613Z,102329.91
2023-01-23T02:47:12.348Z,102334.25
2023-01-23T02:49:42.854Z,102332.53
2023-01-23T02:52:11.282Z,102334.25
2023-01-23T02:54:40.309Z,102333.38
2023-01-23T02:57:09.100Z,102340.41
2023-01-23T02:59:54.802Z,102337.78
2023-01-23T03:02:26.520Z,102339.59
2023-01-23T03:04:54.836Z,102336.06
2023-01-23T03:07:23.149Z,102336.94
2023-01-23T03:09:51.180Z,102333.44
2023-01-23T03:12:19.238Z,102329.91
2023-01-23T03:14:48.547Z,102342.19
2023-01-23T03:17:16.608Z,102344.84
2023-01-23T03:19:46.118Z,102339.59
2023-01-23T03:22:16.056Z,102342.25
2023-01-23T03:24:44.166Z,102349.25
2023-01-23T03:27:12.309Z,102357.16
2023-01-23T03:29:58.307Z,102355.41
2023-01-23T03:32:26.813Z,102356.28
2023-01-23T03:34:57.453Z,102369.44
2023-01-23T03:37:25.608Z,102365.03
2023-01-23T03:40:12.728Z,102369.44
2023-01-23T03:42:41.321Z,102371.16
2023-01-23T03:45:10.904Z,102375.59
2023-01-23T03:47:39.069Z,102375.59
2023-01-23T03:50:10.626Z,102367.69
2023-01-23T03:52:39.008Z,102373.97
2023-01-23T03:55:07.991Z,102379.19
2023-01-23T03:57:36.956Z,102374.75
2023-01-23T04:00:07.068Z,102372.94
2023-01-23T04:02:41.828Z,102380.84
2023-01-23T04:05:12.536Z,102383.50
2023-01-23T04:07:40.925Z,102381.88
2023-01-23T04:10:13.025Z,102382.75
2023-01-23T04:12:43.445Z,102386.16
2023-01-23T04:15:13.371Z,102387.13
2023-01-23T04:17:42.491Z,102383.63
2023-01-23T04:20:13.495Z,102390.59
2023-01-23T04:22:42.676Z,102387.13
2023-01-23T04:25:11.567Z,102389.00
2023-01-23T04:27:39.725Z,102390.88
2023-01-23T04:30:09.764Z,102381.19
2023-01-23T04:32:38.348Z,102393.47
2023-01-23T04:35:07.899Z,102395.28
2023-01-23T04:37:40.540Z,102401.41
2023-01-23T04:40:11.491Z,102402.31
2023-01-23T04:42:41.295Z,102397.97
2023-01-23T04:45:10.838Z,102397.09
2023-01-23T04:47:47.698Z,102401.47
2023-01-23T04:50:16.522Z,102401.38
2023-01-23T04:52:46.634Z,102409.22
2023-01-23T04:55:14.940Z,102398.63
2023-01-23T04:57:43.861Z,102400.41
2023-01-23T05:00:14.483Z,102402.19
2023-01-23T05:02:42.579Z,102394.28
2023-01-23T05:05:10.962Z,102400.47
2023-01-23T05:07:39.372Z,102397.91
2023-01-23T05:10:10.960Z,102409.41
2023-01-23T05:12:39.412Z,102406.00
2023-01-23T05:15:08.859Z,102410.38
2023-01-23T05:17:37.603Z,102412.19
2023-01-23T05:20:07.737Z,102408.56
2023-01-23T05:22:37.543Z,102419.87
2023-01-23T05:25:06.940Z,102420.69
2023-01-23T05:27:36.482Z,102415.38
2023-01-23T05:30:04.889Z,102421.53
2023-01-23T05:32:33.775Z,102421.50
2023-01-23T05:35:03.474Z,102423.22
2023-01-23T05:37:31.778Z,102423.16
2023-01-23T05:40:00.803Z,102417.84
2023-01-23T05:42:29.419Z,102423.97
2023-01-23T05:44:59.637Z,102430.16
2023-01-23T05:47:28.459Z,102432.03
2023-01-23T05:49:56.825Z,102438.97
2023-01-23T05:52:25.717Z,102446.84
2023-01-23T05:54:54.154Z,102442.41
2023-01-23T05:57:22.696Z,102441.53
2023-01-23T05:59:52.738Z,102446.81
2023-01-23T06:02:22.921Z,102445.00
2023-01-23T06:04:55.725Z,102448.50
2023-01-23T06:07:24.413Z,102453.81
2023-01-23T06:09:52.932Z,102458.38
2023-01-23T06:12:21.220Z,102460.06
2023-01-23T06:14:49.405Z,102460.13
2023-01-23T06:17:17.731Z,102463.56
2023-01-23T06:19:48.165Z,102464.41
2023-01-23T06:22:16.891Z,102462.66
2023-01-23T06:24:47.706Z,102469.63
2023-01-23T06:27:15.915Z,102470.53
2023-01-23T06:29:44.061Z,102466.19
2023-01-23T06:32:12.260Z,102477.56
2023-01-23T06:34:40.841Z,102481.06
2023-01-23T06:37:10.739Z,102480.19
2023-01-23T06:39:41.338Z,102480.13
2023-01-23T06:42:10.767Z,102482.81
2023-01-23T06:44:39.168Z,102481.91
2023-01-23T06:47:07.391Z,102483.69
2023-01-23T06:49:35.723Z,102485.62
2023-01-23T06:52:05.211Z,102486.50
2023-01-23T06:54:35.978Z,102485.62
2023-01-23T06:57:05.585Z,102478.56
2023-01-23T06:59:33.817Z,102476.81
2023-01-23T07:02:02.797Z,102485.56
2023-01-23T07:04:33.515Z,102488.16
2023-01-23T07:07:01.589Z,102494.25
2023-01-23T07:09:30.619Z,102488.06
2023-01-23T07:12:00.862Z,102494.19
2023-01-23T07:14:29.519Z,102491.59
2023-01-23T07:16:57.928Z,102492.47
2023-01-23T07:19:26.862Z,102494.28
2023-01-23T07:21:55.277Z,102504.84
2023-01-23T07:24:23.273Z,102498.66
2023-01-23T07:26:51.507Z,102501.25
2023-01-23T07:29:20.920Z,102504.72
2023-01-23T07:31:49.135Z,102513.53
2023-01-23T07:34:17.425Z,102514.47
2023-01-23T07:36:45.482Z,102513.53
2023-01-23T07:39:13.576Z,102515.25
2023-01-23T07:41:43.056Z,102521.41
2023-01-23T07:44:17.804Z,102522.25
2023-01-23T07:46:48.915Z,102534.53
2023-01-23T07:49:17.029Z,102541.44
2023-01-23T07:51:45.304Z,102543.22
2023-01-23T07:54:13.393Z,102536.16
2023-01-23T07:56:41.479Z,102540.50
2023-01-23T07:59:09.994Z,102543.25
2023-01-23T08:01:37.954Z,102551.13
2023-01-23T08:04:07.545Z,102543.31
2023-01-23T08:06:36.573Z,102548.56
2023-01-23T08:09:04.762Z,102549.38
2023-01-23T08:11:34.386Z,102556.38
2023-01-23T08:14:02.782Z,102560.78
2023-01-23T08:16:30.908Z,102564.31
2023-01-23T08:18:59.358Z,102563.41
2023-01-23T08:21:28.764Z,102577.44
2023-01-23T08:23:56.742Z,102573.03
2023-01-23T08:26:25.022Z,102571.22
2023-01-23T08:28:53.116Z,102580.03
2023-01-23T08:31:21.352Z,102582.69
2023-01-23T08:33:49.555Z,102581.81
2023-01-23T08:36:17.590Z,102586.19
2023-01-23T08:38:46.903Z,102588.84
2023-01-23T08:41:15.316Z,102586.28
2023-01-23T08:43:43.436Z,102584.56
2023-01-23T08:46:11.877Z,102584.47
2023-01-23T08:48:40.499Z,102585.38
2023-01-23T08:51:09.992Z,102586.22
2023-01-23T08:53:38.266Z,102591.53
2023-01-23T08:56:09.708Z,102591.47
2023-01-23T08:58:37.800Z,102595.03
2023-01-23T09:01:06.283Z,102594.03
2023-01-23T09:03:34.685Z,102589.59
2023-01-23T09:06:02.970Z,102599.19
2023-01-23T09:08:31.334Z,102593.91
2023-01-23T09:11:02.093Z,102595.66
2023-01-23T09:13:31.989Z,102599.94
2023-01-23T09:16:00.190Z,102598.31
2023-01-23T09:18:28.379Z,102600.16
2023-01-23T09:20:56.973Z,102604.53
2023-01-23T09:23:25.752Z,102601.88
2023-01-23T09:25:53.706Z,102605.38
2023-01-23T09:28:21.666Z,102614.94
2023-01-23T09:30:51.414Z,102620.22
2023-01-23T09:33:24.698Z,102615.72
2023-01-23T09:35:53.069Z,102622.66
2023-01-23T09:38:21.193Z,102616.44
2023-01-23T09:40:52.035Z,102625.12
2023-01-23T09:43:25.403Z,102626.81
2023-01-23T09:46:04.242Z,102639.22
2023-01-23T09:48:39.951Z,102649.75
2023-01-23T09:51:18.838Z,102644.47
2023-01-23T09:53:47.468Z,102642.66
2023-01-23T09:56:28.741Z,102650.50
2023-01-23T09:59:04.600Z,102651.41
2023-01-23T10:01:34.032Z,102650.66
2023-01-23T10:04:03.321Z,102649.63
2023-01-23T10:06:34.574Z,102650.53
2023-01-23T10:09:25.797Z,102653.13
2023-01-23T10:12:02.756Z,102642.50
2023-01-23T10:14:52.126Z,102651.41
2023-01-23T10:17:28.486Z,102647.84
2023-01-23T10:20:15.729Z,102644.44
2023-01-23T10:22:52.305Z,102639.44
2023-01-23T10:25:23.643Z,102634.09
2023-01-23T10:27:54.281Z,102627.88
2023-01-23T10:30:27.736Z,102621.59
2023-01-23T10:33:00.857Z,102619.75
2023-01-23T10:35:36.660Z,102619.06
2023-01-23T10:38:13.184Z,102615.47
2023-01-23T10:41:00.093Z,102615.38
2023-01-23T10:43:28.347Z,102612.06
2023-01-23T10:45:56.592Z,102614.75
2023-01-23T10:48:39.469Z,102607.53
2023-01-23T10:51:26.999Z,102616.22
2023-01-23T10:54:06.178Z,102616.94
2023-01-23T10:56:37.649Z,102612.41
2023-01-23T10:59:08.791Z,102612.50
2023-01-23T11:01:40.315Z,102613.97
2023-01-23T11:04:18.387Z,102621.53
2023-01-23T11:07:02.957Z,102613.66
2023-01-23T11:09:32.104Z,102607.53
2023-01-23T11:12:01.802Z,102606.63
2023-01-23T11:14:30.239Z,102611.03
2023-01-23T11:17:14.122Z,102611.91
2023-01-23T11:19:46.442Z,102605.38
2023-01-23T11:22:40.919Z,102600.31
2023-01-23T11:25:29.269Z,102601.06
2023-01-23T11:27:59.384Z,102602.03
2023-01-23T11:30:46.187Z,102595.06
2023-01-23T11:33:19.884Z,102598.72
2023-01-23T11:35:59.841Z,102596.69
2023-01-23T11:38:32.400Z,102595.84
2023-01-23T11:41:12.996Z,102596.72
2023-01-23T11:43:42.232Z,102586.94
2023-01-23T11:46:35.222Z,102585.19
2023-01-23T11:49:17.206Z,102592.03
2023-01-23T11:51:53.556Z,102590.69
2023-01-23T11:55:04.544Z,102592.41
2023-01-23T11:57:41.518Z,102600.25
2023-01-23T12:00:25.642Z,102589.87
2023-01-23T12:03:24.445Z,102589.09
2023-01-23T12:06:20.029Z,102582.00
2023-01-23T12:09:00.191Z,102582.63
2023-01-23T12:11:37.804Z,102585.28
2023-01-23T12:14:15.911Z,102586.19
2023-01-23T12:17:08.802Z,102579.94
2023-01-23T12:19:56.296Z,102588.50
2023-01-23T12:22:32.671Z,102586.81
2023-01-23T12:25:15.897Z,102592.22
2023-01-23T12:27:46.033Z,102589.63
2023-01-23T12:30:46.879Z,102591.41
2023-01-23T12:33:33.380Z,102589.66
2023-01-23T12:36:16.930Z,102581.78
2023-01-23T12:38:52.860Z,102587.03
2023-01-23T12:41:36.335Z,102600.38
2023-01-23T12:44:12.776Z,102592.53
2023-01-23T12:46:47.118Z,102589.16
2023-01-23T12:49:26.949Z,102591.63
2023-01-23T12:52:01.246Z,102574.75
2023-01-23T12:54:38.370Z,102588.03
2023-01-23T12:57:10.484Z,102590.78
2023-01-23T12:59:57.448Z,102582.87
2023-01-23T13:02:34.279Z,102588.19
2023-01-23T13:05:13.987Z,102587.22
2023-01-23T13:07:52.054Z,102583.69
2023-01-23T13:10:48.213Z,102591.75
2023-01-23T13:13:19.613Z,102584.56
2023-01-23T13:16:04.476Z,102584.66
2023-01-23T13:18:52.836Z,102588.75
2023-01-23T13:21:38.473Z,102591.28
2023-01-23T13:24:49.351Z,102593.88
2023-01-23T13:27:48.123Z,102592.84
2023-01-23T13:30:43.014Z,102598.22
2023-01-23T13:34:06.722Z,102598.16
2023-01-23T13:36:38.924Z,102588.47
2023-01-23T13:39:27.166Z,102585.03
2023-01-23T13:42:45.661Z,102588.50
2023-01-23T13:45:31.496Z,102581.75
2023-01-23T14:25:03.447Z,102587.59
2023-01-23T14:27:51.314Z,102590.13
2023-01-23T14:30:26.517Z,102585.66
2023-01-23T14:32:56.845Z,102589.31
2023-01-23T14:35:27.100Z,102588.34
2023-01-23T14:37:58.174Z,102593.66
2023-01-23T14:40:33.252Z,102596.28
2023-01-23T14:43:07.861Z,102600.03
2023-01-23T14:45:37.794Z,102600.06
2023-01-23T14:48:15.138Z,102604.75
2023-01-23T14:50:43.639Z,102609.28
2023-01-23T14:53:17.259Z,102607.41
2023-01-23T14:55:49.618Z,102611.72
2023-01-23T14:58:23.904Z,102610.88
2023-01-23T15:00:54.431Z,102617.16
2023-01-23T15:03:38.654Z,102615.22
2023-01-23T15:06:10.823Z,102620.63
2023-01-23T15:08:39.747Z,102619.72
2023-01-23T15:11:12.010Z,102625.00
2023-01-23T15:13:51.129Z,102622.38
2023-01-23T15:16:21.867Z,102620.97
2023-01-23T15:18:59.573Z,102620.06
2023-01-23T15:21:31.145Z,102618.22
2023-01-23T15:24:16.357Z,102621.62
2023-01-23T15:26:45.459Z,102623.50
2023-01-23T15:29:19.767Z,102622.84
2023-01-23T15:31:51.030Z,102619.97
2023-01-23T15:34:24.741Z,102620.75
2023-01-23T15:36:56.499Z,102616.31
2023-01-23T15:39:27.975Z,102627.78
2023-01-23T15:41:58.733Z,102627.75
2023-01-23T15:44:29.857Z,102628.59
2023-01-23T15:47:01.004Z,102633.09
2023-01-23T15:49:31.360Z,102636.66
2023-01-23T15:52:02.284Z,102632.25
2023-01-23T15:54:34.566Z,102642.03
2023-01-23T15:57:08.006Z,102647.56
2023-01-23T15:59:37.878Z,102640.53
2023-01-23T16:02:29.218Z,102642.12
2023-01-23T16:04:56.289Z,102644.69
2023-01-23T16:07:26.616Z,102641.13
2023-01-23T16:09:56.635Z,102650.16
2023-01-23T16:12:29.352Z,102643.78
2023-01-23T16:14:58.456Z,102637.66
2023-01-23T16:17:26.530Z,102641.94
2023-01-23T16:19:55.953Z,102644.81
2023-01-23T16:22:29.097Z,102646.78
2023-01-23T16:24:58.261Z,102643.25
2023-01-23T16:27:27.743Z,102653.81
2023-01-23T16:29:56.866Z,102652.00
2023-01-23T16:32:25.159Z,102662.56
2023-01-23T16:34:53.641Z,102659.88
2023-01-23T16:37:23.051Z,102659.91
2023-01-23T16:39:51.145Z,102663.56
2023-01-23T16:42:22.878Z,102671.47
2023-01-23T16:44:51.838Z,102676.69
2023-01-23T16:47:20.683Z,102675.84
2023-01-23T16:49:54.059Z,102672.16
2023-01-23T16:52:27.021Z,102674.84
2023-01-23T16:54:55.946Z,102675.56
2023-01-23T16:57:25.445Z,102671.19
2023-01-23T16:59:56.316Z,102673.03
2023-01-23T17:02:30.274Z,102675.62
2023-01-23T17:04:58.542Z,102679.09
2023-01-23T17:07:28.114Z,102671.25
2023-01-23T17:09:56.329Z,102669.63
2023-01-23T17:12:29.287Z,102671.25
2023-01-23T17:14:58.153Z,102671.34
2023-01-23T17:17:30.282Z,102675.72
2023-01-23T17:20:01.173Z,102669.72
2023-01-23T17:22:35.061Z,102667.78
2023-01-23T17:25:03.941Z,102675.72
2023-01-23T17:27:38.953Z,102669.63
2023-01-23T17:30:16.087Z,102666.09
2023-01-23T17:32:47.256Z,102671.38
2023-01-23T17:35:21.645Z,102671.41
2023-01-23T17:37:51.598Z,102674.84
2023-01-23T17:40:20.960Z,102676.59
2023-01-23T17:42:49.185Z,102670.50
2023-01-23T17:45:19.499Z,102681.03
2023-01-23T17:47:50.220Z,102667.78
2023-01-23T17:50:20.276Z,102678.38
2023-01-23T17:52:51.394Z,102678.38
2023-01-23T17:55:21.570Z,102673.06
2023-01-23T17:57:50.113Z,102675.69
2023-01-23T18:00:20.755Z,102677.47
2023-01-23T18:02:58.239Z,102676.59
2023-01-23T18:05:27.240Z,102689.75
2023-01-23T18:07:56.983Z,102683.53
2023-01-23T18:10:29.019Z,102677.50
2023-01-23T18:13:09.703Z,102689.72
2023-01-23T18:15:43.572Z,102698.50
2023-01-23T18:18:23.957Z,102689.75
2023-01-23T18:20:54.989Z,102694.09
2023-01-23T18:23:27.098Z,102686.16
2023-01-23T18:26:04.919Z,102684.44
2023-01-23T18:28:42.850Z,102689.81
2023-01-23T18:31:15.195Z,102680.13
2023-01-23T18:34:11.862Z,102686.25
2023-01-23T18:36:58.029Z,102696.03
2023-01-23T18:39:43.953Z,102690.91
2023-01-23T18:42:17.357Z,102694.22
2023-01-23T18:44:53.904Z,102696.84
2023-01-23T18:47:22.179Z,102690.72
2023-01-23T18:49:52.421Z,102685.38
2023-01-23T18:52:25.027Z,102691.69
2023-01-23T18:55:03.391Z,102685.53
2023-01-23T18:57:51.034Z,102694.37
2023-01-23T19:00:24.819Z,102698.69
2023-01-23T19:02:56.971Z,102699.50
2023-01-23T19:05:30.102Z,102694.31
2023-01-23T19:07:59.835Z,102695.13
2023-01-23T19:10:46.720Z,102701.31
2023-01-23T19:13:20.824Z,102697.75
2023-01-23T19:15:58.965Z,102701.31
2023-01-23T19:18:44.017Z,102696.94
2023-01-23T19:21:23.409Z,102698.63
2023-01-23T19:23:59.897Z,102695.91
2023-01-23T19:26:32.293Z,102698.56
2023-01-23T19:29:15.485Z,102704.78
2023-01-23T19:32:03.415Z,102702.09
2023-01-23T19:34:32.520Z,102708.22
2023-01-23T19:37:01.167Z,102713.56
2023-01-23T19:39:29.584Z,102709.22
2023-01-23T19:41:59.912Z,102712.84
2023-01-23T19:44:29.966Z,102706.69
2023-01-23T19:46:58.075Z,102711.00
2023-01-23T19:49:26.417Z,102708.34
2023-01-23T19:51:54.701Z,102710.12
2023-01-23T19:54:24.343Z,102708.28
2023-01-23T19:56:52.910Z,102706.53
2023-01-23T19:59:23.838Z,102706.56
2023-01-23T20:01:53.843Z,102713.56
2023-01-23T20:04:24.081Z,102713.59
2023-01-23T20:06:52.830Z,102709.19
2023-01-23T20:09:21.865Z,102711.81
2023-01-23T20:11:52.180Z,102712.62
2023-01-23T20:14:22.199Z,102717.97
2023-01-23T20:16:51.911Z,102724.97
2023-01-23T20:19:20.062Z,102717.97
2023-01-23T20:21:48.740Z,102720.63
2023-01-23T20:24:18.014Z,102723.22
2023-01-23T20:26:47.135Z,102733.06
2023-01-23T20:29:15.525Z,102725.09
2023-01-23T20:31:43.861Z,102726.22
2023-01-23T20:34:13.604Z,102720.84
2023-01-23T20:36:41.885Z,102731.41
2023-01-23T20:39:12.327Z,102730.53
2023-01-23T20:41:40.565Z,102740.19
2023-01-23T20:44:08.540Z,102723.41
2023-01-23T20:46:36.821Z,102724.22
2023-01-23T20:49:05.115Z,102728.69
2023-01-23T20:51:34.824Z,102721.72
2023-01-23T20:54:02.397Z,102728.75
2023-01-23T20:56:30.675Z,102725.13
2023-01-23T20:59:16.273Z,102725.97
2023-01-23T21:02:11.663Z,102731.31
2023-01-23T21:04:40.462Z,102737.38
2023-01-23T21:07:10.208Z,102726.00
2023-01-23T21:09:38.300Z,102725.09
2023-01-23T21:12:07.152Z,102724.19
2023-01-23T21:14:35.956Z,102725.09
2023-01-23T21:17:05.374Z,102727.72
2023-01-23T21:19:33.891Z,102727.69
2023-01-23T21:22:02.462Z,102732.03
2023-01-23T21:24:34.360Z,102737.34
2023-01-23T21:27:03.486Z,102735.59
2023-01-23T21:29:32.338Z,102727.69
2023-01-23T21:32:01.205Z,102736.53
2023-01-23T21:34:29.771Z,102738.22
2023-01-23T21:36:58.159Z,102735.59
2023-01-23T21:39:26.357Z,102730.34
2023-01-23T21:41:55.936Z,102730.31
2023-01-23T21:44:24.133Z,102730.28
2023-01-23T21:46:52.118Z,102725.88
2023-01-23T21:49:20.567Z,102728.50
2023-01-23T21:51:48.634Z,102729.41
2023-01-23T21:54:17.279Z,102732.94
2023-01-23T21:56:45.607Z,102729.44
2023-01-23T21:59:15.080Z,102742.63
2023-01-23T22:01:42.872Z,102732.94
2023-01-23T22:04:12.813Z,102743.47
2023-01-23T22:06:43.083Z,102737.31
2023-01-23T22:09:14.811Z,102735.59
2023-01-23T22:11:42.975Z,102744.41
2023-01-23T22:14:11.519Z,102739.97
2023-01-23T22:16:48.369Z,102751.44
2023-01-23T22:19:19.792Z,102754.09
2023-01-23T22:21:48.311Z,102749.72
2023-01-23T22:24:16.528Z,102747.09
2023-01-23T22:26:44.969Z,102748.97
2023-01-23T22:29:13.891Z,102743.56
2023-01-23T22:31:43.362Z,102743.56
2023-01-23T22:34:14.245Z,102738.28
2023-01-23T22:36:42.276Z,102736.50
2023-01-23T22:39:13.238Z,102740.03
2023-01-23T22:41:41.509Z,102733.00
2023-01-23T22:44:09.604Z,102735.59
2023-01-23T22:46:37.652Z,102727.69
2023-01-23T22:49:07.518Z,102731.19
2023-01-23T22:51:35.566Z,102732.25
2023-01-23T22:54:05.996Z,102746.22
2023-01-23T22:56:34.390Z,102742.69
2023-01-23T22:59:03.193Z,102729.50
2023-01-23T23:01:31.472Z,102734.87
2023-01-23T23:04:21.128Z,102729.56
2023-01-23T23:06:49.130Z,102732.19
2023-01-23T23:09:17.469Z,102735.78
2023-01-23T23:11:47.422Z,102726.00
2023-01-23T23:14:15.354Z,102730.41
2023-01-23T23:16:43.607Z,102733.12
2023-01-23T23:19:12.011Z,102734.91
2023-01-23T23:21:42.755Z,102736.62
2023-01-23T23:24:14.191Z,102739.25
2023-01-23T23:26:42.602Z,102738.34
2023-01-23T23:29:11.017Z,102735.72
2023-01-23T23:31:39.279Z,102739.19
2023-01-23T23:34:07.373Z,102741.00
2023-01-23T23:36:36.221Z,102738.41
2023-01-23T23:39:05.766Z,102733.06
2023-01-23T23:41:33.862Z,102745.37
2023-01-23T23:44:02.301Z,102747.19
2023-01-23T23:46:30.240Z,102748.03
2023-01-23T23:48:58.431Z,102750.81
2023-01-23T23:51:27.365Z,102749.88
2023-01-23T23:53:55.701Z,102755.22
2023-01-23T23:56:27.651Z,102751.66
2023-01-23T23:58:56.959Z,102748.97
